Time;durP1;ratioP1;P1;durP2;ratioP2;P2;SDS_P1;SDS_P2;PMS_P1;PMS_P2;Temp;Humidity;BMP_temperature;BMP_pressure;BME280_temperature;BME280_humidity;BME280_pressure;Samples;Min_cycle;Max_cycle;Signal;HPM_P1;HPM_P2
2021/05/09 00:00:24;;;;;;;2.00;1.90;;;;;;;17.91;50.48;99962.13;1748649;81;21141;-73
2021/05/09 00:02:51;;;;;;;2.20;1.57;;;;;;;17.90;50.50;99968.52;1733570;81;22744;-75
2021/05/09 00:05:19;;;;;;;2.50;1.70;;;;;;;17.90;50.49;99965.83;1727692;81;21195;-75
2021/05/09 00:07:46;;;;;;;1.70;1.60;;;;;;;17.90;50.51;99964.48;1732558;81;21158;-73
2021/05/09 00:10:14;;;;;;;2.20;1.87;;;;;;;17.90;50.51;99965.83;1743867;81;21179;-74
2021/05/09 00:12:41;;;;;;;2.00;1.80;;;;;;;17.91;50.48;99963.47;1734964;81;21120;-74
2021/05/09 00:15:12;;;;;;;1.98;1.50;;;;;;;17.90;50.45;99973.37;1732093;80;22736;-75
2021/05/09 00:17:39;;;;;;;2.15;1.65;;;;;;;17.91;50.48;99966.16;1728855;81;21599;-74
2021/05/09 00:20:09;;;;;;;1.55;1.45;;;;;;;17.90;50.46;99965.30;1732013;81;21159;-74
2021/05/09 00:22:37;;;;;;;2.50;1.80;;;;;;;17.91;50.49;99971.53;1728695;81;21197;-73
2021/05/09 00:25:05;;;;;;;2.27;1.72;;;;;;;17.91;50.45;99972.88;1724214;80;21257;-74
2021/05/09 00:27:33;;;;;;;3.12;1.72;;;;;;;17.91;50.43;99969.66;1728162;81;21160;-75
2021/05/09 00:30:00;;;;;;;1.80;1.50;;;;;;;17.92;50.46;99974.51;1730249;80;21221;-73
2021/05/09 00:32:28;;;;;;;2.15;1.55;;;;;;;17.93;50.46;99976.17;1724258;80;21183;-73
2021/05/09 00:34:56;;;;;;;1.65;1.52;;;;;;;17.93;50.43;99980.20;1742108;81;21179;-74
2021/05/09 00:37:24;;;;;;;1.95;1.75;;;;;;;17.93;50.40;99978.33;1740771;81;21116;-74
2021/05/09 00:39:51;;;;;;;2.33;1.80;;;;;;;17.94;50.42;99980.50;1732301;81;21384;-74
2021/05/09 00:42:19;;;;;;;1.57;1.35;;;;;;;17.95;50.39;99980.81;1728283;80;21167;-74
2021/05/09 00:44:48;;;;;;;1.77;1.40;;;;;;;17.95;50.38;99982.16;1729295;81;21204;-75
2021/05/09 00:47:15;;;;;;;1.80;1.67;;;;;;;17.96;50.41;99987.83;1721972;82;21203;-74
2021/05/09 00:49:43;;;;;;;1.60;1.37;;;;;;;17.91;50.38;99979.06;1737560;81;21185;-75
2021/05/09 00:52:11;;;;;;;1.92;1.72;;;;;;;17.97;50.39;99986.81;1725426;81;21331;-73
2021/05/09 00:54:55;;;;;;;1.77;1.50;;;;;;;17.98;50.36;99983.06;1726017;80;21145;-74
2021/05/09 00:57:23;;;;;;;;;;;;;;;17.99;50.36;99997.64;1701609;83;21175;-75
2021/05/09 00:59:52;;;;;;;3.25;1.87;;;;;;;17.99;50.35;100002.20;1700059;82;20271;-74
2021/05/09 01:02:19;;;;;;;3.15;1.62;;;;;;;17.92;50.47;99996.83;1720019;80;21131;-73
2021/05/09 01:04:48;;;;;;;2.20;1.50;;;;;;;17.94;50.47;100003.34;1713749;81;21440;-75
2021/05/09 01:07:15;;;;;;;2.45;1.30;;;;;;;17.96;50.42;100002.61;1727810;82;21606;-73
2021/05/09 01:09:43;;;;;;;1.40;1.20;;;;;;;17.98;50.44;100005.91;1732723;82;21232;-72
2021/05/09 01:12:12;;;;;;;2.05;1.50;;;;;;;17.98;50.40;100007.26;1724656;82;21207;-73
2021/05/09 01:14:41;;;;;;;1.70;1.60;;;;;;;18.00;50.38;100005.19;1718598;82;21632;-73
2021/05/09 01:17:10;;;;;;;1.67;1.47;;;;;;;18.01;50.36;100012.23;1721855;81;21445;-72
2021/05/09 01:19:39;;;;;;;1.40;1.30;;;;;;;18.02;50.34;100012.52;1693332;82;21948;-73
2021/05/09 01:22:08;;;;;;;1.87;1.40;;;;;;;18.03;50.35;100020.91;1719893;82;21184;-73
2021/05/09 01:24:36;;;;;;;1.80;1.62;;;;;;;18.03;50.33;100019.56;1734846;82;21216;-73
2021/05/09 01:27:05;;;;;;;2.00;1.60;;;;;;;18.05;50.32;100022.86;1719344;82;21113;-74
2021/05/09 01:29:34;;;;;;;1.92;1.20;;;;;;;18.06;50.31;100017.80;1723271;82;22374;-74
2021/05/09 01:32:05;;;;;;;2.15;1.50;;;;;;;18.06;50.26;100024.00;1712118;82;21194;-73
2021/05/09 01:34:35;;;;;;;1.60;1.50;;;;;;;18.08;50.25;100025.14;1726849;82;21139;-74
2021/05/09 01:37:04;;;;;;;1.50;1.40;;;;;;;18.08;50.26;100023.80;1713074;82;21158;-75
2021/05/09 01:39:31;;;;;;;1.47;1.37;;;;;;;18.09;50.25;100030.81;1739432;82;21172;-74
2021/05/09 01:42:02;;;;;;;1.30;1.20;;;;;;;18.11;50.23;100032.77;1728430;82;21410;-75
2021/05/09 01:44:29;;;;;;;1.72;1.20;;;;;;;18.11;50.21;100034.11;1734847;82;21196;-73
2021/05/09 01:46:57;;;;;;;1.40;1.27;;;;;;;18.13;50.22;100035.25;1720762;81;21146;-74
2021/05/09 01:49:26;;;;;;;1.45;1.35;;;;;;;18.13;50.22;100042.79;1717133;82;21146;-73
2021/05/09 01:51:55;;;;;;;1.60;1.50;;;;;;;18.15;50.16;100042.59;1711187;81;21147;-73
2021/05/09 01:54:23;;;;;;;2.10;1.30;;;;;;;18.16;50.18;100047.77;1717616;82;21254;-73
2021/05/09 01:56:52;;;;;;;1.30;1.20;;;;;;;18.16;50.14;100053.14;1722447;82;21211;-74
2021/05/09 01:59:20;;;;;;;1.30;1.20;;;;;;;18.18;50.14;100048.91;1716539;82;21205;-74
2021/05/09 02:01:50;;;;;;;1.42;1.32;;;;;;;18.18;50.13;100046.21;1731476;81;21534;-72
2021/05/09 02:04:19;;;;;;;1.40;1.30;;;;;;;18.20;50.08;100054.89;1711746;82;21603;-73
2021/05/09 02:06:48;;;;;;;1.52;1.42;;;;;;;18.20;50.10;100053.55;1714348;82;21372;-73
2021/05/09 02:09:16;;;;;;;1.70;1.60;;;;;;;18.21;50.06;100056.00;1717605;82;21228;-74
2021/05/09 02:11:43;;;;;;;1.32;1.12;;;;;;;18.22;50.03;100056.85;1711328;81;21130;-74
2021/05/09 02:14:13;;;;;;;1.70;1.52;;;;;;;18.23;50.07;100066.55;1717657;82;21193;-73
2021/05/09 02:16:42;;;;;;;1.95;1.72;;;;;;;18.24;50.02;100065.53;1729815;82;21138;-74
2021/05/09 02:19:10;;;;;;;1.60;1.50;;;;;;;18.25;50.01;100071.20;1729548;82;21383;-73
2021/05/09 02:21:40;;;;;;;1.92;1.67;;;;;;;18.26;49.99;100076.38;1744571;82;21158;-73
2021/05/09 02:24:08;;;;;;;1.40;1.30;;;;;;;18.27;49.97;100068.63;1740270;82;21125;-72
2021/05/09 02:26:36;;;;;;;1.62;1.45;;;;;;;18.28;49.94;100078.34;1739112;82;21218;-75
2021/05/09 02:29:05;;;;;;;1.50;1.40;;;;;;;18.28;49.92;100077.52;1734776;82;21186;-72
2021/05/09 02:31:32;;;;;;;1.30;1.20;;;;;;;18.28;49.93;100083.72;1737305;82;21405;-74
2021/05/09 02:34:00;;;;;;;2.02;1.50;;;;;;;18.30;49.92;100090.76;1739433;82;21137;-73
2021/05/09 02:36:27;;;;;;;1.70;1.32;;;;;;;18.30;49.90;100090.23;1736343;82;21217;-72
2021/05/09 02:38:55;;;;;;;1.67;1.52;;;;;;;18.31;49.90;100097.28;1736618;82;21208;-73
2021/05/09 02:41:23;;;;;;;1.50;1.40;;;;;;;18.32;49.89;100100.26;1723030;82;21181;-73
2021/05/09 02:43:50;;;;;;;1.47;1.35;;;;;;;18.34;49.84;100106.78;1738045;82;21189;-73
2021/05/09 02:46:18;;;;;;;1.72;1.62;;;;;;;18.34;49.84;100107.59;1729860;82;21157;-73
2021/05/09 02:48:47;;;;;;;1.60;1.50;;;;;;;18.34;49.81;100112.98;1728783;82;21169;-73
2021/05/09 02:51:15;;;;;;;1.45;1.35;;;;;;;18.36;49.81;100113.59;1732025;82;21612;-73
2021/05/09 02:53:43;;;;;;;1.27;1.17;;;;;;;18.37;49.80;100119.79;1740882;82;21142;-74
2021/05/09 02:56:11;;;;;;;1.85;1.50;;;;;;;18.38;49.79;100124.15;1730690;80;22469;-74
2021/05/09 02:58:38;;;;;;;1.82;1.45;;;;;;;18.39;49.79;100127.16;1717579;82;21191;-75
2021/05/09 03:01:06;;;;;;;1.30;1.20;;;;;;;18.39;49.77;100129.84;1726525;82;21621;-74
2021/05/09 03:03:33;;;;;;;1.60;1.40;;;;;;;18.40;49.76;100140.38;1744406;81;21168;-75
2021/05/09 03:06:01;;;;;;;1.65;1.40;;;;;;;18.42;49.71;100146.37;1761995;80;21145;-75
2021/05/09 03:08:30;;;;;;;1.50;1.40;;;;;;;18.43;49.70;100149.91;1759768;81;21363;-74
2021/05/09 03:10:58;;;;;;;1.87;1.42;;;;;;;18.45;49.69;100150.52;1752166;81;21152;-72
2021/05/09 03:13:27;;;;;;;1.98;1.57;;;;;;;18.46;49.70;100155.67;1742049;80;21411;-73
2021/05/09 03:15:55;;;;;;;1.65;1.50;;;;;;;18.47;49.71;100159.21;1754772;80;21200;-72
2021/05/09 03:18:23;;;;;;;1.62;1.52;;;;;;;18.47;49.68;100160.55;1757812;80;21204;-73
2021/05/09 03:20:50;;;;;;;2.27;1.60;;;;;;;18.49;49.68;100164.39;1761697;80;21354;-73
2021/05/09 03:23:19;;;;;;;1.62;1.52;;;;;;;18.50;49.67;100166.84;1730035;81;22062;-73
2021/05/09 03:25:47;;;;;;;1.87;1.70;;;;;;;18.51;49.66;100169.85;1730470;81;21141;-74
2021/05/09 03:28:16;;;;;;;1.70;1.55;;;;;;;18.53;49.65;100177.72;1731691;81;21200;-74
2021/05/09 03:30:43;;;;;;;1.82;1.60;;;;;;;18.54;49.61;100171.29;1731850;82;21609;-75
2021/05/09 03:33:11;;;;;;;1.40;1.30;;;;;;;18.56;49.62;100176.79;1731775;81;21600;-75
2021/05/09 03:35:38;;;;;;;1.90;1.65;;;;;;;18.58;49.61;100188.66;1731566;82;21189;-73
2021/05/09 03:38:06;;;;;;;1.47;1.37;;;;;;;18.59;49.58;100182.26;1731684;81;21165;-74
2021/05/09 03:40:34;;;;;;;1.62;1.42;;;;;;;18.61;49.56;100187.73;1731697;81;21129;-74
2021/05/09 03:43:02;;;;;;;1.52;1.30;;;;;;;18.61;49.54;100184.22;1737488;81;21140;-74
2021/05/09 03:45:30;;;;;;;1.47;1.37;;;;;;;18.63;49.53;100184.30;1709298;82;22303;-73
2021/05/09 03:47:57;;;;;;;1.40;1.30;;;;;;;18.65;49.56;100191.65;1716572;81;21186;-74
2021/05/09 03:50:25;;;;;;;2.12;1.72;;;;;;;18.67;49.50;100192.27;1720335;82;21171;-73
2021/05/09 03:52:52;;;;;;;1.67;1.55;;;;;;;18.69;49.49;100189.37;1718195;80;21652;-73
2021/05/09 03:55:20;;;;;;;1.25;1.15;;;;;;;18.73;49.45;100201.89;1739291;80;21110;-73
2021/05/09 03:57:47;;;;;;;1.50;1.30;;;;;;;18.75;49.43;100201.16;1737376;80;22191;-72
2021/05/09 04:00:17;;;;;;;1.40;1.30;;;;;;;18.77;49.41;100205.81;1715010;80;21153;-73
2021/05/09 04:02:45;;;;;;;1.82;1.50;;;;;;;18.81;49.39;100211.11;1716035;80;21166;-73
2021/05/09 04:05:13;;;;;;;1.67;1.57;;;;;;;18.83;49.34;100207.69;1724057;80;21210;-73
2021/05/09 04:07:41;;;;;;;1.30;1.20;;;;;;;18.86;49.34;100210.78;1714211;82;21203;-74
2021/05/09 04:10:09;;;;;;;2.30;1.67;;;;;;;18.90;49.30;100213.89;1727787;82;21394;-73
2021/05/09 04:12:38;;;;;;;1.82;1.40;;;;;;;18.93;49.28;100213.48;1719349;82;21237;-74
2021/05/09 04:15:08;;;;;;;1.50;1.40;;;;;;;18.97;49.22;100217.92;1715503;80;21763;-73
2021/05/09 04:17:35;;;;;;;1.60;1.50;;;;;;;19.00;49.17;100219.64;1731614;82;21173;-74
2021/05/09 04:20:05;;;;;;;1.60;1.32;;;;;;;19.06;49.12;100216.63;1723595;80;21139;-73
2021/05/09 04:22:33;;;;;;;1.47;1.37;;;;;;;19.11;49.13;100225.44;1720861;80;22300;-73
2021/05/09 04:25:01;;;;;;;1.47;1.30;;;;;;;19.12;49.05;100226.55;1721181;82;21717;-73
2021/05/09 04:27:29;;;;;;;1.50;1.40;;;;;;;19.16;49.01;100229.64;1704016;82;21220;-73
2021/05/09 04:29:56;;;;;;;1.92;1.60;;;;;;;19.19;49.01;100231.40;1707636;80;21187;-74
2021/05/09 04:32:24;;;;;;;2.05;1.40;;;;;;;19.23;48.94;100233.97;1715750;80;21130;-73
2021/05/09 04:34:52;;;;;;;1.67;1.52;;;;;;;19.26;48.94;100238.13;1715907;82;22119;-72
2021/05/09 04:37:19;;;;;;;1.62;1.30;;;;;;;19.29;48.90;100232.29;1719257;80;21150;-73
2021/05/09 04:39:49;;;;;;;1.65;1.55;;;;;;;19.32;48.88;100233.22;1709666;82;21596;-72
2021/05/09 04:42:17;;;;;;;1.75;1.60;;;;;;;19.35;48.86;100236.81;1718692;80;21191;-73
2021/05/09 04:44:45;;;;;;;1.45;1.35;;;;;;;19.38;48.83;100250.41;1708816;82;21212;-72
2021/05/09 04:47:12;;;;;;;1.90;1.80;;;;;;;19.41;48.78;100249.46;1711389;80;21478;-72
2021/05/09 04:49:40;;;;;;;1.92;1.60;;;;;;;19.45;48.76;100266.84;1733633;80;21201;-73
2021/05/09 04:52:08;;;;;;;1.70;1.60;;;;;;;19.48;48.72;100271.50;1707778;82;21438;-72
2021/05/09 04:54:36;;;;;;;2.85;1.42;;;;;;;19.51;48.66;100281.34;1709773;80;21619;-73
2021/05/09 04:57:04;;;;;;;1.70;1.60;;;;;;;19.54;48.64;100280.07;1722755;80;21150;-72
2021/05/09 04:59:31;;;;;;;1.65;1.50;;;;;;;19.56;48.61;100279.33;1715544;80;21197;-75
2021/05/09 05:01:58;;;;;;;1.67;1.50;;;;;;;19.59;48.57;100274.34;1722815;82;21507;-73
2021/05/09 05:04:26;;;;;;;1.65;1.50;;;;;;;19.61;48.54;100276.83;1710233;80;21182;-74
2021/05/09 05:06:54;;;;;;;1.60;1.40;;;;;;;19.63;48.51;100280.14;1708911;82;21149;-74
2021/05/09 05:09:21;;;;;;;1.40;1.30;;;;;;;19.64;48.49;100284.47;1711028;82;21595;-73
2021/05/09 05:11:49;;;;;;;1.62;1.50;;;;;;;19.67;48.47;100280.55;1712334;82;21388;-73
2021/05/09 05:14:17;;;;;;;1.77;1.55;;;;;;;19.69;48.42;100275.77;1705862;80;21206;-74
2021/05/09 05:16:44;;;;;;;1.35;1.25;;;;;;;19.71;48.39;100281.23;1719650;82;21196;-74
2021/05/09 05:19:12;;;;;;;1.60;1.50;;;;;;;19.72;48.37;100280.73;1716932;80;21144;-74
2021/05/09 05:21:39;;;;;;;1.82;1.65;;;;;;;19.74;48.33;100280.84;1719249;82;21173;-74
2021/05/09 05:24:08;;;;;;;1.47;1.37;;;;;;;19.76;48.32;100285.50;1719455;82;22410;-73
2021/05/09 05:26:36;;;;;;;1.70;1.60;;;;;;;19.79;48.29;100290.97;1722428;80;22098;-72
2021/05/09 05:29:04;;;;;;;1.80;1.70;;;;;;;19.80;48.26;100290.77;1726639;82;21135;-72
2021/05/09 05:31:32;;;;;;;1.50;1.40;;;;;;;19.82;48.24;100291.91;1718199;80;21123;-72
2021/05/09 05:34:02;;;;;;;1.98;1.50;;;;;;;19.83;48.23;100293.01;1724711;80;21151;-72
2021/05/09 05:36:31;;;;;;;1.55;1.45;;;;;;;19.86;48.20;100296.31;1727596;82;22887;-72
2021/05/09 05:38:59;;;;;;;2.12;1.60;;;;;;;19.88;48.18;100301.81;1723000;80;21203;-73
2021/05/09 05:41:26;;;;;;;1.65;1.55;;;;;;;19.90;48.16;100304.30;1721151;80;21218;-73
2021/05/09 05:43:54;;;;;;;1.30;1.20;;;;;;;19.93;48.13;100301.16;1726576;80;21146;-72
2021/05/09 05:46:21;;;;;;;1.98;1.62;;;;;;;19.94;48.09;100301.48;1716271;80;21622;-72
2021/05/09 05:48:48;;;;;;;1.67;1.57;;;;;;;19.96;48.08;100299.39;1703498;80;21396;-71
2021/05/09 05:51:16;;;;;;;1.40;1.30;;;;;;;19.97;48.05;100300.53;1718559;82;21185;-72
2021/05/09 05:53:44;;;;;;;2.02;1.67;;;;;;;20.00;48.03;100301.95;1724839;80;21135;-72
2021/05/09 05:56:11;;;;;;;1.52;1.42;;;;;;;20.02;48.01;100300.69;1715502;82;21173;-72
2021/05/09 05:58:39;;;;;;;1.98;1.50;;;;;;;20.05;47.98;100302.14;1715695;82;21627;-73
2021/05/09 06:01:07;;;;;;;1.82;1.42;;;;;;;20.08;47.94;100307.09;1718137;82;21629;-72
2021/05/09 06:03:34;;;;;;;1.50;1.40;;;;;;;20.12;47.90;100309.65;1718486;80;21427;-71
2021/05/09 06:06:02;;;;;;;1.60;1.40;;;;;;;20.14;47.88;100310.79;1711534;82;21190;-72
2021/05/09 06:08:29;;;;;;;1.60;1.50;;;;;;;20.17;47.85;100315.23;1712566;82;21150;-72
2021/05/09 06:10:57;;;;;;;1.60;1.50;;;;;;;20.19;47.81;100319.89;1725127;82;21164;-74
2021/05/09 06:13:24;;;;;;;2.05;1.50;;;;;;;20.22;47.78;100320.81;1717704;82;22154;-73
2021/05/09 06:15:51;;;;;;;1.52;1.42;;;;;;;20.26;47.75;100327.10;1707238;82;21151;-71
2021/05/09 06:18:19;;;;;;;1.05;1.00;;;;;;;20.29;47.73;100332.08;1710991;82;21197;-73
2021/05/09 06:20:47;;;;;;;1.40;1.30;;;;;;;20.30;47.71;100326.47;1716778;82;21189;-71
2021/05/09 06:23:26;;;;;;;1.50;1.40;;;;;;;20.33;47.67;100327.89;1718778;82;21186;-72
2021/05/09 06:25:55;;;;;;;1.50;1.40;;;;;;;20.35;47.65;100333.37;1713671;82;21301;-70
2021/05/09 06:28:22;;;;;;;2.22;1.30;;;;;;;20.38;47.60;100336.99;1722159;82;21536;-71
2021/05/09 06:30:51;;;;;;;1.60;1.50;;;;;;;20.41;47.60;100339.77;1713471;82;21614;-72
2021/05/09 06:33:19;;;;;;;1.40;1.30;;;;;;;20.45;47.53;100338.81;1728556;82;21179;-73
2021/05/09 06:35:46;;;;;;;1.77;1.67;;;;;;;20.48;47.50;100336.50;1727041;82;21164;-73
2021/05/09 06:38:14;;;;;;;1.62;1.52;;;;;;;20.50;47.50;100339.81;1718689;82;21372;-72
2021/05/09 06:40:42;;;;;;;2.58;1.50;;;;;;;20.53;47.45;100339.89;1706747;82;21209;-73
2021/05/09 06:43:10;;;;;;;1.40;1.30;;;;;;;20.56;47.42;100337.58;1724863;82;21182;-74
2021/05/09 06:45:37;;;;;;;1.62;1.52;;;;;;;20.59;47.38;100343.94;1715804;82;21219;-71
2021/05/09 06:48:06;;;;;;;1.65;1.55;;;;;;;20.61;47.37;100340.48;1719183;82;21205;-73
2021/05/09 06:50:33;;;;;;;1.52;1.40;;;;;;;20.64;47.33;100341.91;1707347;82;21337;-75
2021/05/09 06:53:04;;;;;;;1.32;1.22;;;;;;;20.67;47.31;100351.44;1727429;82;21153;-74
2021/05/09 06:55:32;;;;;;;1.37;1.27;;;;;;;20.70;47.29;100353.70;1719089;82;21181;-74
2021/05/09 06:58:00;;;;;;;1.50;1.40;;;;;;;20.73;47.27;100350.58;1716610;82;21178;-74
2021/05/09 07:00:27;;;;;;;1.50;1.40;;;;;;;20.74;47.22;100345.47;1695426;84;21211;-74
2021/05/09 07:02:56;;;;;;;1.52;1.40;;;;;;;20.77;47.19;100349.91;1727921;82;21384;-74
2021/05/09 07:05:24;;;;;;;1.50;1.40;;;;;;;20.80;47.16;100349.48;1731427;81;21177;-73
2021/05/09 07:07:53;;;;;;;1.55;1.17;;;;;;;20.83;47.15;100345.50;1729470;80;21154;-71
2021/05/09 07:10:22;;;;;;;1.40;1.30;;;;;;;20.85;47.10;100350.16;1722799;80;21179;-73
2021/05/09 07:12:49;;;;;;;1.30;1.20;;;;;;;20.89;47.09;100347.84;1721450;80;21172;-74
2021/05/09 07:19:28;;;;;;;1.57;1.47;;;;;;;21.01;47.00;100352.31;1826753;75;22684;-73
2021/05/09 07:21:59;;;;;;;1.45;1.35;;;;;;;20.95;47.02;100346.95;1804367;77;21008;-71
2021/05/09 07:24:26;;;;;;;1.50;1.40;;;;;;;20.97;46.97;100344.32;1780912;79;21609;-72
2021/05/09 07:26:54;;;;;;;1.70;1.47;;;;;;;21.00;46.96;100340.38;1782148;77;21138;-72
2021/05/09 07:29:21;;;;;;;1.50;1.40;;;;;;;21.03;46.93;100347.19;1784853;79;21177;-72
2021/05/09 07:31:48;;;;;;;1.50;1.40;;;;;;;21.05;46.90;100350.50;1806488;78;21181;-72
2021/05/09 07:34:16;;;;;;;1.40;1.30;;;;;;;21.07;46.89;100349.75;1799744;79;21177;-71
2021/05/09 07:36:43;;;;;;;1.60;1.50;;;;;;;21.10;46.81;100356.89;1806848;78;21340;-71
2021/05/09 07:39:11;;;;;;;1.40;1.30;;;;;;;21.12;46.80;100352.62;1816052;79;21658;-73
2021/05/09 07:41:40;;;;;;;1.50;1.40;;;;;;;21.14;46.79;100359.44;1796839;78;22217;-72
2021/05/09 07:44:08;;;;;;;1.92;1.35;;;;;;;21.16;46.74;100353.83;1788961;78;21146;-71
2021/05/09 07:46:35;;;;;;;1.20;1.20;;;;;;;21.18;46.71;100353.08;1799724;78;21303;-73
2021/05/09 07:49:03;;;;;;;1.50;1.40;;;;;;;21.21;46.70;100351.29;1805331;77;21386;-73
2021/05/09 07:51:33;;;;;;;1.40;1.30;;;;;;;21.23;46.68;100360.00;1806472;77;21193;-72
2021/05/09 07:54:02;;;;;;;1.50;1.40;;;;;;;21.25;46.68;100355.19;1782127;78;21162;-72
2021/05/09 07:56:30;;;;;;;1.27;1.17;;;;;;;21.29;46.65;100350.17;1786190;78;21174;-72
2021/05/09 07:58:57;;;;;;;1.50;1.40;;;;;;;21.31;46.64;100348.89;1784205;79;21133;-72
2021/05/09 08:01:26;;;;;;;1.20;1.10;;;;;;;21.35;46.56;100354.14;1776462;80;22666;-74
2021/05/09 08:03:53;;;;;;;1.52;1.42;;;;;;;21.38;46.58;100356.41;1758649;80;21190;-71
2021/05/09 08:06:22;;;;;;;1.20;1.10;;;;;;;21.43;46.53;100346.27;1739662;81;21167;-71
2021/05/09 08:08:49;;;;;;;1.40;1.30;;;;;;;21.49;46.53;100360.25;1742646;81;21646;-73
2021/05/09 08:11:17;;;;;;;1.72;1.30;;;;;;;21.53;46.48;100354.70;1743486;79;21166;-73
2021/05/09 08:13:46;;;;;;;1.57;1.47;;;;;;;21.58;46.43;100354.04;1734755;79;21295;-74
2021/05/09 08:16:13;;;;;;;1.30;1.20;;;;;;;21.64;46.40;100349.61;1737199;80;21182;-73
2021/05/09 08:18:41;;;;;;;1.37;1.27;;;;;;;21.68;46.30;100348.91;1734298;80;21187;-67
2021/05/09 08:21:09;;;;;;;1.12;1.10;;;;;;;21.72;46.25;100358.22;1751979;81;21600;-74
2021/05/09 08:23:43;;;;;;;1.40;1.30;;;;;;;21.77;46.26;100351.62;1747984;80;21146;-76
2021/05/09 08:26:07;;;;;;;1.50;1.40;;;;;;;21.81;46.19;100354.70;1784177;78;21272;-76
2021/05/09 08:28:35;;;;;;;1.55;1.45;;;;;;;21.88;46.13;100354.59;1794918;79;21187;-75
2021/05/09 08:31:03;;;;;;;1.10;1.10;;;;;;;21.91;46.08;100341.98;1780781;78;21182;-75
2021/05/09 08:33:31;;;;;;;1.40;1.30;;;;;;;21.95;46.08;100341.28;1780386;79;21186;-77
2021/05/09 08:35:58;;;;;;;1.52;1.42;;;;;;;22.00;46.06;100348.73;1791925;79;21171;-77
2021/05/09 08:38:25;;;;;;;1.22;1.12;;;;;;;22.04;46.01;100342.31;1771277;79;21201;-77
2021/05/09 08:40:53;;;;;;;1.40;1.30;;;;;;;22.07;46.00;100337.27;1757779;79;21171;-76
2021/05/09 08:43:23;;;;;;;1.45;1.35;;;;;;;22.10;46.03;100332.77;1768352;79;21180;-77
2021/05/09 08:45:50;;;;;;;1.40;1.30;;;;;;;22.13;45.97;100342.30;1785096;79;21158;-74
2021/05/09 08:48:21;;;;;;;1.50;1.40;;;;;;;22.15;45.92;100338.30;1785415;78;21153;-75
2021/05/09 08:50:47;;;;;;;1.50;1.40;;;;;;;22.18;45.84;100326.20;1790445;79;21412;-68
2021/05/09 08:53:19;;;;;;;4.40;2.08;;;;;;;22.21;45.89;100330.33;1779798;78;21141;-67
2021/05/09 08:55:46;;;;;;;5.50;2.98;;;;;;;22.23;47.22;100335.80;1784694;79;21204;-68
2021/05/09 08:58:15;;;;;;;4.17;2.15;;;;;;;22.26;48.13;100329.15;1790982;79;21182;-64
2021/05/09 09:00:42;;;;;;;7.12;2.80;;;;;;;22.30;48.48;100335.74;1730258;80;21638;-65
2021/05/09 09:03:13;;;;;;;3.45;2.17;;;;;;;22.31;48.50;100340.93;1766391;78;21434;-65
2021/05/09 09:05:44;;;;;;;2.90;2.05;;;;;;;22.33;48.34;100338.82;1781151;79;21126;-70
2021/05/09 09:08:15;;;;;;;8.03;2.10;;;;;;;22.35;48.10;100335.89;1805613;79;22113;-65
2021/05/09 09:10:48;;;;;;;5.40;1.82;;;;;;;22.36;47.89;100334.81;1775561;78;21202;-66
2021/05/09 09:13:26;;;;;;;3.83;2.17;;;;;;;22.38;46.69;100340.28;1769386;79;21560;-62
2021/05/09 09:16:05;;;;;;;6.95;2.80;;;;;;;22.34;44.27;100339.63;1761494;79;22289;-62
2021/05/09 09:18:54;;;;;;;4.67;2.20;;;;;;;22.31;45.55;100344.99;1811304;78;21145;-64
2021/05/09 09:21:28;;;;;;;3.52;2.52;;;;;;;22.32;45.83;100335.80;1787518;80;21599;-62
2021/05/09 09:24:11;;;;;;;4.00;2.62;;;;;;;22.34;46.14;100337.75;1787828;79;21131;-62
2021/05/09 09:26:48;;;;;;;6.83;2.47;;;;;;;22.38;46.43;100345.70;1783828;78;21155;-70
2021/05/09 09:29:23;;;;;;;4.92;2.52;;;;;;;22.42;46.75;100350.66;1786959;80;21183;-69
2021/05/09 09:31:58;;;;;;;6.92;2.52;;;;;;;22.47;46.71;100353.51;1781382;80;21198;-69
2021/05/09 09:34:43;;;;;;;4.20;2.22;;;;;;;22.52;46.67;100352.27;1786221;79;21127;-72
2021/05/09 09:37:12;;;;;;;3.30;2.50;;;;;;;22.57;46.58;100351.05;1782404;80;21137;-69
2021/05/09 09:39:49;;;;;;;5.28;2.33;;;;;;;22.62;46.50;100351.69;1784364;80;21779;-69
2021/05/09 09:42:39;;;;;;;12.03;2.40;;;;;;;22.66;46.46;100347.48;1787146;79;21334;-71
2021/05/09 09:45:24;;;;;;;2.42;1.90;;;;;;;22.70;46.34;100352.73;1766418;80;21154;-68
2021/05/09 09:48:01;;;;;;;3.08;1.92;;;;;;;22.73;46.28;100363.89;1779654;79;21123;-70
2021/05/09 09:50:41;;;;;;;3.15;1.98;;;;;;;22.77;46.17;100354.78;1771619;80;21170;-68
2021/05/09 09:53:32;;;;;;;4.15;2.40;;;;;;;22.81;46.13;100351.08;1775983;80;21132;-70
2021/05/09 09:56:23;;;;;;;4.35;2.33;;;;;;;22.83;46.14;100344.39;1776172;79;21461;-70
2021/05/09 09:59:04;;;;;;;2.42;1.92;;;;;;;22.87;46.03;100348.27;1786361;79;21150;-69
2021/05/09 10:01:35;;;;;;;2.98;2.08;;;;;;;22.90;45.97;100357.27;1787946;79;21183;-71
2021/05/09 10:04:09;;;;;;;3.35;1.80;;;;;;;22.92;45.95;100353.80;1787801;80;21134;-68
2021/05/09 10:06:38;;;;;;;2.22;1.92;;;;;;;22.95;45.96;100363.36;1787435;79;21218;-68
2021/05/09 10:09:07;;;;;;;2.45;1.67;;;;;;;22.96;45.93;100360.39;1786834;80;21427;-71
2021/05/09 10:11:36;;;;;;;2.35;2.00;;;;;;;22.99;45.89;100363.72;1774166;79;21207;-67
2021/05/09 10:14:05;;;;;;;3.20;1.90;;;;;;;23.03;45.86;100363.56;1765860;80;21619;-67
2021/05/09 10:16:35;;;;;;;3.22;2.12;;;;;;;23.06;45.64;100373.92;1785389;80;21106;-66
2021/05/09 10:19:12;;;;;;;3.12;1.98;;;;;;;23.10;45.64;100379.16;1786827;80;21155;-69
2021/05/09 10:21:40;;;;;;;1.70;1.60;;;;;;;23.13;45.61;100375.98;1758373;80;21428;-69
2021/05/09 10:24:25;;;;;;;2.50;1.85;;;;;;;23.15;45.54;100373.33;1778157;79;21173;-69
2021/05/09 10:26:58;;;;;;;1.98;1.60;;;;;;;23.19;45.51;100385.06;1774014;80;21179;-68
2021/05/09 10:32:22;;;;;;;2.40;1.70;;;;;;;23.26;45.25;100373.05;1776947;80;21166;-70
2021/05/09 10:35:01;;;;;;;3.62;2.15;;;;;;;23.30;45.17;100373.40;1773023;79;22114;-70
2021/05/09 10:37:53;;;;;;;2.60;1.72;;;;;;;23.33;45.17;100371.05;1765331;79;21583;-70
2021/05/09 10:40:37;;;;;;;2.35;1.60;;;;;;;23.39;45.16;100375.20;1782128;80;21248;-70
2021/05/09 10:43:16;;;;;;;2.83;2.08;;;;;;;23.41;45.11;100373.08;1782283;79;22121;-69
2021/05/09 10:45:50;;;;;;;2.33;1.40;;;;;;;23.43;45.07;100373.66;1780962;80;21627;-70
2021/05/09 10:48:29;;;;;;;2.52;2.00;;;;;;;23.47;44.93;100377.55;1782223;80;21195;-65
2021/05/09 10:51:06;;;;;;;2.37;2.10;;;;;;;23.50;44.90;100373.02;1781863;80;21181;-67
2021/05/09 10:53:40;;;;;;;2.77;1.67;;;;;;;23.53;44.90;100373.36;1772536;80;21175;-69
2021/05/09 10:56:19;;;;;;;1.82;1.65;;;;;;;23.55;44.87;100367.17;1780796;80;21151;-69
2021/05/09 10:58:51;;;;;;;1.80;1.70;;;;;;;23.59;44.80;100368.87;1768610;80;21175;-69
2021/05/09 11:01:28;;;;;;;2.33;1.82;;;;;;;23.62;44.79;100369.73;1776174;79;21376;-69
2021/05/09 11:04:05;;;;;;;2.87;1.80;;;;;;;23.67;44.68;100372.56;1771565;79;21198;-73
2021/05/09 11:06:45;;;;;;;4.00;2.05;;;;;;;23.73;44.71;100373.50;1769287;80;21144;-72
2021/05/09 11:09:14;;;;;;;2.42;1.67;;;;;;;23.81;44.69;100369.08;1769811;79;21126;-73
2021/05/09 11:11:52;;;;;;;1.70;1.60;;;;;;;23.91;44.64;100366.59;1765985;79;21543;-72
2021/05/09 11:14:19;;;;;;;1.77;1.67;;;;;;;24.00;44.58;100365.66;1771654;80;21468;-73
2021/05/09 11:17:02;;;;;;;3.12;1.82;;;;;;;24.11;44.56;100370.22;1769038;79;21160;-75
2021/05/09 11:19:37;;;;;;;;;;;;;;;24.23;44.38;100370.70;1720478;82;21581;-72
2021/05/09 11:22:05;;;;;;;1.75;1.65;;;;;;;24.34;44.26;100371.19;1730080;81;20525;-73
2021/05/09 11:24:37;;;;;;;1.95;1.75;;;;;;;24.40;44.33;100374.28;1710990;82;21158;-73
2021/05/09 11:27:10;;;;;;;2.23;1.90;;;;;;;24.53;44.23;100368.57;1702561;83;21409;-73
2021/05/09 11:29:41;;;;;;;1.42;1.32;;;;;;;24.63;44.10;100363.84;1735230;81;21194;-71
2021/05/09 11:32:11;;;;;;;2.08;1.60;;;;;;;24.78;43.95;100371.41;1719574;81;21174;-72
2021/05/09 11:34:40;;;;;;;1.95;1.75;;;;;;;24.87;43.96;100372.64;1725060;81;21174;-73
2021/05/09 11:37:08;;;;;;;1.55;1.45;;;;;;;24.94;44.11;100373.84;1732231;81;21200;-71
2021/05/09 11:39:37;;;;;;;1.72;1.60;;;;;;;25.00;44.18;100372.85;1731162;81;21279;-73
2021/05/09 11:42:13;;;;;;;1.90;1.70;;;;;;;25.06;44.19;100374.57;1701344;83;21197;-72
2021/05/09 11:44:45;;;;;;;2.27;2.08;;;;;;;25.10;44.00;100373.00;1733153;81;21151;-74